Time;durP1;ratioP1;P1;durP2;ratioP2;P2;SDS_P1;SDS_P2;PMS_P1;PMS_P2;Temp;Humidity;BMP_temperature;BMP_pressure;BME280_temperature;BME280_humidity;BME280_pressure;Samples;Min_cycle;Max_cycle;Signal;HPM_P1;HPM_P2
2022/12/21 00:01:12;;;;;;;40.00;20.77;;;;;;;-0.92;100.00;69033.47;5098211;28;20657;-66
2022/12/21 00:03:40;;;;;;;35.57;20.30;;;;;;;-0.84;100.00;69445.81;5098108;28;20654;-65
2022/12/21 00:06:08;;;;;;;34.87;19.00;;;;;;;-0.86;100.00;67637.59;5097774;28;20282;-65
2022/12/21 00:08:38;;;;;;;39.37;18.83;;;;;;;-0.55;100.00;65103.09;5098066;28;20183;-66
2022/12/21 00:11:05;;;;;;;22.40;14.93;;;;;;;-0.48;100.00;62523.75;5097758;28;20199;-65
2022/12/21 00:13:33;;;;;;;28.73;17.53;;;;;;;-0.25;100.00;59465.56;5098024;28;20595;-67
2022/12/21 00:16:01;;;;;;;31.07;18.83;;;;;;;-0.30;100.00;60519.19;5097810;28;20234;-67
2022/12/21 00:18:28;;;;;;;34.70;18.93;;;;;;;-0.38;100.00;63106.88;5096619;28;20195;-66
2022/12/21 00:21:00;;;;;;;34.93;19.40;;;;;;;-0.39;100.00;66984.06;5097879;28;20191;-65
2022/12/21 00:23:28;;;;;;;43.43;20.97;;;;;;;-0.50;100.00;70090.13;5097909;28;20651;-66
2022/12/21 00:25:55;;;;;;;39.53;20.13;;;;;;;-0.65;100.00;70809.81;5097653;28;20635;-66
2022/12/21 00:28:22;;;;;;;43.90;22.17;;;;;;;-0.83;100.00;71659.47;5097869;28;20196;-65
2022/12/21 00:30:49;;;;;;;36.43;20.90;;;;;;;-0.67;100.00;70369.88;5097882;28;20237;-65
2022/12/21 00:33:16;;;;;;;46.93;22.33;;;;;;;-0.77;100.00;69601.28;5097526;28;20199;-65
2022/12/21 00:35:47;;;;;;;37.77;20.60;;;;;;;-0.77;100.00;68052.72;5097632;28;20234;-66
2022/12/21 00:38:16;;;;;;;33.10;19.07;;;;;;;-0.69;100.00;66474.69;5097740;28;20634;-66
2022/12/21 00:40:42;;;;;;;34.97;18.97;;;;;;;-0.79;100.00;69049.03;5097634;28;20210;-65
2022/12/21 00:43:09;;;;;;;33.87;19.90;;;;;;;-0.84;100.00;67764.38;5097717;28;20203;-66
2022/12/21 00:45:36;;;;;;;30.70;18.43;;;;;;;-0.79;100.00;67342.63;5097659;28;20554;-65
2022/12/21 00:48:04;;;;;;;42.77;20.47;;;;;;;-0.90;100.00;68900.78;5097688;28;20573;-66
2022/12/21 00:50:33;;;;;;;36.57;21.47;;;;;;;-0.67;100.00;69528.88;5097679;28;20191;-65
2022/12/21 00:53:00;;;;;;;34.23;19.33;;;;;;;-0.55;100.00;68307.00;5094260;28;20184;-66
2022/12/21 00:55:28;;;;;;;40.73;18.93;;;;;;;-0.51;100.00;67435.44;5094404;28;20682;-65
2022/12/21 00:57:55;;;;;;;33.20;19.20;;;;;;;-0.35;100.00;67987.22;5094361;28;20184;-66
2022/12/21 01:00:22;;;;;;;42.60;19.27;;;;;;;-0.25;100.00;66394.19;5094577;28;20271;-66
2022/12/21 01:02:49;;;;;;;28.87;17.70;;;;;;;-0.24;100.00;69096.19;5094140;28;20184;-65
2022/12/21 01:05:16;;;;;;;42.07;19.70;;;;;;;-0.55;100.00;71255.94;5093957;28;20188;-66
2022/12/21 01:07:43;;;;;;;30.83;18.00;;;;;;;-0.48;100.00;70443.13;5094209;28;20587;-66
2022/12/21 01:10:11;;;;;;;34.23;19.10;;;;;;;-0.52;100.00;71622.81;5094394;28;20641;-65
2022/12/21 01:12:39;;;;;;;36.43;18.73;;;;;;;-0.77;100.00;70567.94;5094078;28;20204;-66
2022/12/21 01:15:07;;;;;;;31.97;17.30;;;;;;;-0.68;100.00;70170.88;5093989;28;20194;-65
2022/12/21 01:17:34;;;;;;;28.57;16.90;;;;;;;-0.62;100.00;69103.81;5093915;28;20184;-67
2022/12/21 01:20:01;;;;;;;41.00;18.77;;;;;;;-0.53;100.00;68151.13;5093935;28;20245;-65
2022/12/21 01:22:28;;;;;;;40.87;20.10;;;;;;;-0.77;100.00;69041.44;5093678;28;20233;-67
2022/12/21 01:24:55;;;;;;;35.90;19.67;;;;;;;-1.22;100.00;69205.03;5093776;28;20189;-66
2022/12/21 01:27:22;;;;;;;30.70;18.63;;;;;;;-1.01;100.00;67203.09;5094286;28;20281;-66
2022/12/21 01:29:50;;;;;;;40.83;18.93;;;;;;;-0.96;100.00;66284.13;5093481;28;20196;-66
2022/12/21 01:32:17;;;;;;;38.97;18.60;;;;;;;-0.83;100.00;65223.84;5093424;28;20191;-65
2022/12/21 01:34:43;;;;;;;40.40;18.60;;;;;;;-0.76;100.00;65929.13;5093640;28;20199;-67
2022/12/21 01:37:10;;;;;;;46.83;17.83;;;;;;;-0.72;100.00;66763.75;5093453;28;20227;-65
2022/12/21 01:39:37;;;;;;;32.77;19.27;;;;;;;-1.01;100.00;71426.88;5093340;28;20206;-67
2022/12/21 01:42:04;;;;;;;30.47;19.13;;;;;;;-0.86;100.00;71881.06;5093146;28;20305;-67
2022/12/21 01:44:59;;;;;;;37.00;18.57;;;;;;;-0.82;100.00;72714.91;5093597;28;20297;-66
2022/12/21 01:47:31;;;;;;;31.87;19.27;;;;;;;-0.75;100.00;69058.22;5093634;28;20603;-66
2022/12/21 01:50:02;;;;;;;38.40;18.27;;;;;;;-0.65;100.00;70374.81;5093092;28;20192;-65
2022/12/21 01:52:32;;;;;;;28.97;17.90;;;;;;;-0.64;100.00;72689.97;5093419;28;20195;-67
2022/12/21 01:55:04;;;;;;;34.73;18.20;;;;;;;-0.74;100.00;72920.34;5093334;28;20623;-67
2022/12/21 01:57:34;;;;;;;30.30;18.40;;;;;;;-0.81;100.00;71276.41;5093272;28;20255;-66
2022/12/21 02:00:04;;;;;;;28.10;18.10;;;;;;;-1.18;100.00;68452.31;5092983;28;20192;-65
2022/12/21 02:02:34;;;;;;;28.67;17.53;;;;;;;-1.64;100.00;64962.97;5093194;28;20191;-65
2022/12/21 02:05:07;;;;;;;28.37;17.83;;;;;;;-1.47;100.00;63874.66;5092955;28;20574;-65
2022/12/21 02:07:35;;;;;;;25.97;17.47;;;;;;;-1.41;100.00;64365.50;5093078;28;20685;-66
2022/12/21 02:10:02;;;;;;;29.13;16.73;;;;;;;-1.23;100.00;65653.59;5092658;28;20184;-67
2022/12/21 02:12:31;;;;;;;27.30;16.70;;;;;;;-1.15;100.00;66736.41;5092702;28;20278;-65
2022/12/21 02:14:59;;;;;;;32.37;17.70;;;;;;;-1.10;100.00;66882.72;5092555;28;20275;-65
2022/12/21 02:17:40;;;;;;;35.90;17.73;;;;;;;-1.03;100.00;65523.44;5092888;28;20294;-65
2022/12/21 02:20:55;;;;;;;21.07;14.87;;;;;;;-0.92;100.00;64371.78;5092638;28;20191;-65
2022/12/21 02:23:42;;;;;;;20.97;13.90;;;;;;;-0.87;100.00;66886.34;5092749;28;20211;-66
2022/12/21 02:26:41;;;;;;;21.87;14.67;;;;;;;-0.84;100.00;66899.84;5092232;28;20219;-66
2022/12/21 02:29:41;;;;;;;29.27;14.73;;;;;;;-0.71;100.00;67702.72;5092361;28;20245;-65
2022/12/21 02:32:19;;;;;;;16.90;13.27;;;;;;;-0.66;100.00;70695.91;5092320;28;20203;-66
2022/12/21 02:34:57;;;;;;;33.40;14.13;;;;;;;-0.79;100.00;74843.13;5091331;28;20207;-66
2022/12/21 02:37:30;;;;;;;29.87;15.23;;;;;;;-1.01;100.00;73702.53;5092692;28;20614;-66
2022/12/21 02:40:03;;;;;;;24.80;16.53;;;;;;;-1.13;100.00;71579.69;5092441;28;20188;-67
2022/12/21 02:45:28;;;;;;;26.73;13.60;;;;;;;-0.77;100.00;72873.97;5092220;28;20257;-65
2022/12/21 02:48:02;;;;;;;19.67;12.50;;;;;;;-0.90;100.00;75257.38;5092097;28;20187;-66
2022/12/21 02:50:34;;;;;;;27.07;15.40;;;;;;;-1.08;100.00;76100.81;5092032;28;20184;-66
2022/12/21 02:53:05;;;;;;;39.00;22.67;;;;;;;-1.16;100.00;73764.19;5091872;28;20188;-66
2022/12/21 02:55:32;;;;;;;33.50;19.40;;;;;;;-1.04;100.00;73105.28;5091948;28;20184;-66
2022/12/21 02:58:14;;;;;;;32.13;19.33;;;;;;;-1.33;100.00;71895.09;5090548;28;20214;-67
2022/12/21 03:00:56;;;;;;;34.20;18.80;;;;;;;-1.48;100.00;70566.69;5092217;28;20627;-66
2022/12/21 03:03:50;;;;;;;43.07;22.33;;;;;;;-1.52;100.00;69307.66;5091760;28;20192;-65
2022/12/21 03:06:32;;;;;;;47.77;22.77;;;;;;;-1.59;100.00;66838.31;5091648;28;20188;-66
2022/12/21 03:09:12;;;;;;;46.03;23.07;;;;;;;-1.41;100.00;65206.72;5091625;28;20195;-65
2022/12/21 03:11:52;;;;;;;48.17;22.97;;;;;;;-1.62;100.00;68163.38;5090465;28;20187;-66
2022/12/21 03:14:27;;;;;;;44.10;24.80;;;;;;;-1.72;100.00;68373.81;5091564;28;20183;-66
2022/12/21 03:17:01;;;;;;;50.43;25.93;;;;;;;-1.69;100.00;67573.81;5091029;28;20215;-66
2022/12/21 03:19:34;;;;;;;42.83;25.50;;;;;;;-1.65;100.00;67523.56;5091844;28;20210;-66
2022/12/21 03:22:05;;;;;;;44.53;23.70;;;;;;;-1.69;100.00;66193.22;5091748;28;20613;-65
2022/12/21 03:24:38;;;;;;;41.60;24.70;;;;;;;-1.54;100.00;65331.75;5091564;28;20183;-66
2022/12/21 03:27:14;;;;;;;43.43;24.53;;;;;;;-1.49;100.00;66525.28;5091383;28;20318;-65
2022/12/21 03:29:47;;;;;;;46.63;25.70;;;;;;;-1.51;100.00;71350.63;5091437;28;20187;-65
2022/12/21 03:32:22;;;;;;;42.33;21.20;;;;;;;-1.87;100.00;71379.81;5091750;28;20631;-65
2022/12/21 03:34:53;;;;;;;47.53;24.37;;;;;;;-1.60;100.00;71350.09;5091572;28;20184;-67
2022/12/21 03:37:24;;;;;;;41.47;23.27;;;;;;;-1.61;100.00;70468.91;5091776;28;20231;-65
2022/12/21 03:39:59;;;;;;;37.27;18.83;;;;;;;-1.42;100.00;68607.44;5091226;28;20184;-65
2022/12/21 03:42:29;;;;;;;28.60;15.77;;;;;;;-1.69;100.00;65576.72;5091775;28;20199;-65
2022/12/21 03:45:00;;;;;;;26.03;15.37;;;;;;;-1.52;100.00;62352.44;5091173;28;20279;-66
2022/12/21 03:47:33;;;;;;;26.80;16.27;;;;;;;-1.39;100.00;60488.72;5091590;28;20183;-66
2022/12/21 03:50:06;;;;;;;26.57;15.97;;;;;;;-1.52;100.00;63564.16;5091049;28;20180;-66
2022/12/21 03:52:36;;;;;;;22.43;15.60;;;;;;;-1.44;100.00;64536.25;5091223;28;20187;-67
2022/12/21 03:55:07;;;;;;;25.47;16.60;;;;;;;-1.46;100.00;66042.38;5091363;28;20188;-65
2022/12/21 03:57:35;;;;;;;27.93;16.73;;;;;;;-1.63;100.00;67505.34;5091050;28;20208;-65
2022/12/21 04:00:04;;;;;;;25.40;16.50;;;;;;;-1.86;100.00;69219.34;5091301;28;20228;-65
2022/12/21 04:02:38;;;;;;;26.30;16.40;;;;;;;-1.73;100.00;68767.84;5091395;28;20187;-65
2022/12/21 04:05:12;;;;;;;30.13;17.70;;;;;;;-1.66;100.00;69011.03;5091242;28;20657;-66
2022/12/21 04:07:41;;;;;;;28.70;15.87;;;;;;;-1.73;100.00;68742.84;5091085;28;20274;-65
2022/12/21 04:10:11;;;;;;;25.53;17.10;;;;;;;-1.54;100.00;68275.88;5090914;28;20176;-65
2022/12/21 04:12:38;;;;;;;31.07;17.47;;;;;;;-1.53;100.00;69608.84;5091253;28;20614;-65
2022/12/21 04:15:08;;;;;;;29.27;17.60;;;;;;;-1.76;100.00;71569.66;5091219;28;20616;-65
2022/12/21 04:17:35;;;;;;;31.27;16.60;;;;;;;-1.90;100.00;72987.69;5091327;28;20215;-65
2022/12/21 04:20:02;;;;;;;27.80;16.67;;;;;;;-1.78;100.00;74075.22;5090794;28;20191;-66
2022/12/21 04:28:08;;;;;;;50.00;29.00;;;;;;;-1.94;100.00;67674.28;5092349;28;20231;-65
2022/12/21 04:30:36;;;;;;;55.67;31.37;;;;;;;-1.58;100.00;62929.50;5094691;28;20187;-65
2022/12/21 04:33:03;;;;;;;55.27;30.93;;;;;;;-1.43;100.00;60536.31;5094857;28;20559;-66
2022/12/21 04:35:33;;;;;;;50.53;29.13;;;;;;;-1.47;100.00;58835.44;5094911;28;20223;-65
2022/12/21 04:38:01;;;;;;;50.77;30.83;;;;;;;-1.48;100.00;57697.97;5094426;28;20204;-67
2022/12/21 04:40:27;;;;;;;49.00;28.80;;;;;;;-1.46;100.00;58616.72;5094435;28;20192;-67
2022/12/21 04:42:54;;;;;;;44.80;28.17;;;;;;;-1.26;100.00;58504.56;5094444;28;20186;-67
2022/12/21 04:45:21;;;;;;;46.07;28.63;;;;;;;-1.42;100.00;61420.56;5094475;28;20188;-66
2022/12/21 04:47:48;;;;;;;50.37;23.20;;;;;;;-1.88;100.00;65880.00;5094331;28;20180;-65
2022/12/21 04:50:15;;;;;;;43.60;23.63;;;;;;;-1.69;100.00;68343.00;5094205;28;20184;-66
2022/12/21 04:52:42;;;;;;;45.80;24.57;;;;;;;-1.76;100.00;70293.16;5094238;28;20184;-66
2022/12/21 04:55:10;;;;;;;42.83;23.87;;;;;;;-1.69;100.00;69151.72;5094142;28;20188;-67
2022/12/21 04:57:37;;;;;;;63.73;30.47;;;;;;;-1.68;100.00;69372.78;5094414;28;20212;-66
2022/12/21 05:00:05;;;;;;;52.53;30.30;;;;;;;-1.51;100.00;68069.56;5094105;28;20184;-65
2022/12/21 05:02:32;;;;;;;49.93;24.70;;;;;;;-1.75;100.00;68877.88;5094296;28;20257;-66
2022/12/21 05:04:58;;;;;;;49.93;23.73;;;;;;;-1.91;100.00;67548.00;5094021;28;20253;-65
2022/12/21 05:07:25;;;;;;;44.07;22.77;;;;;;;-1.92;100.00;67684.13;5094354;28;20654;-65
2022/12/21 05:09:52;;;;;;;40.97;22.60;;;;;;;-1.96;100.00;65805.97;5094359;28;20196;-65
2022/12/21 05:12:20;;;;;;;44.13;21.63;;;;;;;-1.68;100.00;65163.06;5093799;28;20194;-67
2022/12/21 05:14:47;;;;;;;40.63;20.60;;;;;;;-1.78;100.00;68437.19;5093836;28;20191;-67
2022/12/21 05:24:39;;;;;;;46.07;21.00;;;;;;;-1.58;100.00;65783.97;5043808;28;20196;-65
2022/12/21 05:44:47;;;;;;;39.80;18.57;;;;;;;-0.91;100.00;60366.13;5005027;28;20717;-66
2022/12/21 05:47:16;;;;;;;36.90;17.17;;;;;;;-0.89;100.00;60877.25;5092822;28;20304;-66
2022/12/21 05:49:43;;;;;;;46.77;18.40;;;;;;;-0.79;100.00;61164.91;5093596;28;20189;-66
2022/12/21 05:52:10;;;;;;;45.73;18.93;;;;;;;-0.89;100.00;62224.50;5093341;28;20203;-66
2022/12/21 05:54:37;;;;;;;44.07;18.97;;;;;;;-0.67;100.00;63817.56;5093420;28;20653;-66
2022/12/21 05:57:03;;;;;;;43.40;16.50;;;;;;;-0.89;100.00;68261.69;5092971;28;20204;-66
2022/12/21 05:59:30;;;;;;;53.37;19.07;;;;;;;-0.76;100.00;70143.63;5093009;28;20188;-64
2022/12/21 06:01:58;;;;;;;53.87;20.37;;;;;;;-0.58;100.00;70152.41;5093191;28;20653;-64
2022/12/21 06:04:25;;;;;;;67.23;21.13;;;;;;;-0.61;100.00;71178.41;5093003;28;20661;-65
2022/12/21 06:06:52;;;;;;;80.13;23.40;;;;;;;-0.29;100.00;68782.25;5093211;28;20559;-66
2022/12/21 06:09:19;;;;;;;98.30;27.90;;;;;;;0.08;100.00;65750.81;5093358;28;20232;-65
2022/12/21 06:11:46;;;;;;;85.20;25.30;;;;;;;0.43;100.00;68191.44;5093223;28;20605;-66
2022/12/21 06:14:13;;;;;;;112.47;28.30;;;;;;;0.67;100.00;78488.25;5093017;28;20192;-65
2022/12/21 06:16:40;;;;;;;74.47;29.53;;;;;;;0.92;100.00;90457.31;5092882;28;20638;-66
2022/12/21 06:19:09;;;;;;;88.97;30.67;;;;;;;1.37;100.00;110759.28;5092885;28;20297;-66
2022/12/21 06:21:37;;;;;;;66.70;30.13;;;;;;;1.82;100.00;142112.78;5092683;28;20260;-66
2022/12/21 06:24:04;;;;;;;107.27;33.60;;;;;;;2.28;100.00;146633.56;5092547;28;20184;-66
2022/12/21 06:26:30;;;;;;;62.60;28.97;;;;;;;2.67;100.00;146730.19;5092193;28;20186;-68
2022/12/21 06:28:57;;;;;;;70.23;28.53;;;;;;;3.15;100.00;146848.25;5092538;28;20256;-66
2022/12/21 06:31:24;;;;;;;71.40;26.60;;;;;;;3.61;100.00;146962.59;5092670;28;20550;-66
2022/12/21 06:33:51;;;;;;;72.57;27.77;;;;;;;4.06;100.00;147074.50;5092658;28;20188;-67
2022/12/21 06:36:20;;;;;;;72.87;28.23;;;;;;;4.56;100.00;147200.22;5092591;28;20200;-65
2022/12/21 06:38:47;;;;;;;83.80;29.37;;;;;;;5.04;100.00;147318.50;5092367;28;20696;-66
2022/12/21 06:41:16;;;;;;;72.60;25.87;;;;;;;5.30;100.00;147383.94;5092259;28;20184;-62
2022/12/21 06:43:44;;;;;;;78.90;28.67;;;;;;;5.64;100.00;147468.28;5092300;28;20188;-63
2022/12/21 06:46:12;;;;;;;79.37;27.23;;;;;;;6.20;100.00;147608.03;5092475;28;20604;-62
2022/12/21 06:48:40;;;;;;;71.03;26.73;;;;;;;6.92;100.00;147785.72;5092107;28;20199;-63
2022/12/21 06:51:09;;;;;;;82.33;28.20;;;;;;;6.79;100.00;147755.44;5091426;28;20195;-62
2022/12/21 06:53:39;;;;;;;126.53;31.00;;;;;;;7.40;100.00;147906.72;5092280;28;20184;-64
2022/12/21 06:56:08;;;;;;;91.13;27.27;;;;;;;7.13;100.00;147838.66;5092182;28;20563;-65
2022/12/21 06:58:35;;;;;;;129.80;25.80;;;;;;;7.71;100.00;147984.91;5091904;28;20200;-67
2022/12/21 07:01:07;;;;;;;120.47;28.47;;;;;;;8.64;100.00;148215.81;5089305;28;20204;-67
2022/12/21 07:03:33;;;;;;;83.00;28.80;;;;;;;8.77;100.00;148247.34;5075137;28;20200;-66
2022/12/21 07:06:01;;;;;;;74.80;28.57;;;;;;;9.35;100.00;148393.81;5071345;28;20642;-64
2022/12/21 07:08:28;;;;;;;112.97;34.53;;;;;;;9.84;100.00;148515.06;5071995;28;20187;-66
2022/12/21 07:11:02;;;;;;;100.83;30.40;;;;;;;10.13;100.00;148588.34;5071927;28;20196;-67
2022/12/21 07:13:29;;;;;;;97.77;28.70;;;;;;;9.64;100.00;148467.03;5071124;28;20234;-65
2022/12/21 07:15:57;;;;;;;63.73;23.90;;;;;;;10.04;100.00;148566.88;5071550;28;20185;-67
2022/12/21 07:18:24;;;;;;;58.97;22.83;;;;;;;10.78;100.00;148751.41;5071123;28;20204;-66
2022/12/21 07:20:57;;;;;;;54.93;21.57;;;;;;;11.60;100.00;148955.03;5071207;28;20185;-66
2022/12/21 07:23:25;;;;;;;50.43;20.83;;;;;;;12.41;100.00;149158.81;5071153;28;20185;-67
2022/12/21 07:25:52;;;;;;;61.67;22.07;;;;;;;13.62;96.21;149461.59;5071498;28;20185;-67
2022/12/21 07:28:21;;;;;;;71.47;26.50;;;;;;;13.84;89.10;149517.31;5071364;28;20273;-67
2022/12/21 07:30:48;;;;;;;61.17;28.63;;;;;;;14.27;85.03;149623.78;5072256;28;20275;-68
2022/12/21 07:33:15;;;;;;;107.57;37.57;;;;;;;14.00;82.63;149556.63;5072323;28;20189;-67
2022/12/21 07:35:42;;;;;;;102.53;42.70;;;;;;;14.22;80.22;149611.09;5071721;28;20531;-66
2022/12/21 07:38:09;;;;;;;75.33;41.40;;;;;;;14.72;75.21;149736.69;5070945;28;20209;-66
2022/12/21 07:40:36;;;;;;;78.30;43.27;;;;;;;15.24;70.24;149868.59;5071117;28;20192;-67
2022/12/21 07:43:08;;;;;;;96.37;43.43;;;;;;;15.53;69.37;149941.00;5071128;28;20191;-67
2022/12/21 07:45:39;;;;;;;61.93;41.40;;;;;;;15.87;66.11;150026.03;5069761;28;20181;-66
2022/12/21 07:48:06;;;;;;;101.83;42.17;;;;;;;15.80;65.47;150009.50;5071277;28;20246;-66
2022/12/21 07:50:33;;;;;;;81.87;41.97;;;;;;;16.25;64.53;150121.22;5071380;28;20181;-66
2022/12/21 07:53:00;;;;;;;97.83;43.13;;;;;;;16.47;61.89;150177.06;5071072;28;20188;-64
2022/12/21 07:55:27;;;;;;;101.87;42.33;;;;;;;17.16;58.64;150349.84;5071288;28;20564;-65
2022/12/21 07:57:54;;;;;;;94.23;48.53;;;;;;;17.18;60.84;150356.22;5070725;28;20211;-66
2022/12/21 08:00:22;;;;;;;103.67;51.63;;;;;;;17.70;57.34;150487.13;5071472;28;20188;-65
2022/12/21 08:02:51;;;;;;;102.90;49.50;;;;;;;18.13;55.80;150593.91;5073613;28;20254;-66
2022/12/21 08:05:18;;;;;;;120.97;47.57;;;;;;;17.94;55.44;150545.63;5074973;28;20189;-66
2022/12/21 08:07:45;;;;;;;124.10;46.57;;;;;;;18.16;53.70;150601.56;5076308;28;20189;-65
2022/12/21 08:10:12;;;;;;;150.13;47.27;;;;;;;18.20;54.92;150612.97;5074717;28;20275;-66
2022/12/21 08:12:39;;;;;;;148.63;48.83;;;;;;;17.63;56.39;150468.06;5074779;28;20185;-67
2022/12/21 08:15:07;;;;;;;111.57;47.77;;;;;;;18.00;57.36;150562.13;5075484;28;20197;-65
2022/12/21 08:17:34;;;;;;;142.83;50.77;;;;;;;18.39;56.97;150660.03;5074699;28;20209;-66
2022/12/21 08:20:05;;;;;;;107.57;44.90;;;;;;;19.30;53.48;150889.06;5074634;28;20627;-65
2022/12/21 08:22:32;;;;;;;118.30;45.87;;;;;;;19.05;52.96;150826.69;5075383;28;20189;-66
2022/12/21 08:24:59;;;;;;;152.00;47.63;;;;;;;19.51;51.87;150942.56;5074705;28;20188;-68
2022/12/21 08:27:25;;;;;;;132.57;48.10;;;;;;;20.22;50.35;151120.75;5075762;28;20710;-65
2022/12/21 08:29:52;;;;;;;171.27;49.23;;;;;;;19.97;50.07;151058.38;5075556;28;20234;-67
2022/12/21 08:32:19;;;;;;;106.07;32.73;;;;;;;20.29;47.68;151138.63;5074498;28;20185;-66
2022/12/21 08:34:46;;;;;;;164.03;45.30;;;;;;;21.74;46.97;151504.31;5074517;28;20189;-67
2022/12/21 08:37:14;;;;;;;73.88;22.45;;;;;;;22.05;43.08;151580.84;5074022;28;20208;-64
2022/12/21 08:39:41;;;;;;;35.50;18.40;;;;;;;21.83;42.93;151526.00;5074320;28;20181;-64
2022/12/21 08:42:08;;;;;;;50.40;19.58;;;;;;;21.80;44.36;151519.63;5074904;28;20699;-63
2022/12/21 08:44:35;;;;;;;20.45;12.25;;;;;;;22.37;42.53;151661.16;5074235;28;20196;-64
2022/12/21 08:47:02;;;;;;;28.83;15.38;;;;;;;20.95;45.36;151305.50;5089276;28;20671;-64
2022/12/21 08:49:29;;;;;;;39.65;13.68;;;;;;;22.22;43.65;151625.50;5093568;28;20184;-65
2022/12/21 08:51:56;;;;;;;11.18;10.05;;;;;;;21.38;43.75;151413.84;5094812;28;20215;-64
2022/12/21 08:54:25;;;;;;;7.43;6.72;;;;;;;22.31;41.89;151648.44;5094392;28;20570;-64
2022/12/21 08:56:52;;;;;;;8.20;7.43;;;;;;;23.22;40.43;151878.06;5094421;28;20180;-66
2022/12/21 08:59:20;;;;;;;6.80;6.13;;;;;;;24.25;38.82;152137.28;5093885;28;20215;-66
2022/12/21 09:01:48;;;;;;;6.78;6.18;;;;;;;22.75;39.97;151758.13;5094039;28;20188;-67
2022/12/21 09:04:15;;;;;;;5.00;4.60;;;;;;;22.73;40.42;151753.06;5094462;28;20192;-66
2022/12/21 09:06:41;;;;;;;7.85;5.50;;;;;;;22.50;41.08;151695.59;5093064;28;20188;-65
2022/12/21 09:09:09;;;;;;;8.43;4.80;;;;;;;23.72;39.85;152003.16;5072913;28;20207;-65
2022/12/21 09:11:38;;;;;;;9.65;5.10;;;;;;;23.92;38.58;152054.25;5073420;28;20196;-64
2022/12/21 09:14:04;;;;;;;14.73;6.82;;;;;;;24.20;38.40;152124.50;5072767;28;20184;-65
2022/12/21 09:16:32;;;;;;;21.13;7.70;;;;;;;22.41;41.16;151672.63;5074406;28;20181;-66
2022/12/21 09:18:59;;;;;;;11.60;5.72;;;;;;;21.95;42.10;151555.34;5074053;28;20224;-68
2022/12/21 09:21:26;;;;;;;11.23;6.13;;;;;;;22.98;41.23;151816.84;5074332;28;20189;-69
2022/12/21 09:23:52;;;;;;;10.38;7.15;;;;;;;23.69;39.94;151995.50;5073475;28;20185;-68
2022/12/21 09:26:20;;;;;;;7.95;7.28;;;;;;;24.33;38.35;152157.69;5073730;28;20559;-64
2022/12/21 09:28:48;;;;;;;18.20;7.78;;;;;;;24.73;38.27;152257.31;5073193;28;20185;-66
2022/12/21 09:31:17;;;;;;;6.38;5.82;;;;;;;23.85;38.54;152036.34;5091197;28;20222;-65
2022/12/21 09:33:45;;;;;;;6.63;6.22;;;;;;;23.78;39.08;152017.22;5093519;28;20611;-66
2022/12/21 09:36:14;;;;;;;7.70;7.10;;;;;;;22.47;40.38;151687.97;5093453;28;20192;-66
2022/12/21 09:38:41;;;;;;;6.10;5.70;;;;;;;22.77;39.53;151764.53;5093788;28;20204;-67
2022/12/21 09:41:28;;;;;;;10.02;8.13;;;;;;;23.76;38.31;152013.41;5094215;28;20188;-67
2022/12/21 09:44:20;;;;;;;11.32;8.55;;;;;;;22.28;41.44;151639.47;5093035;28;20184;-66
2022/12/21 09:46:50;;;;;;;5.97;5.68;;;;;;;22.82;39.00;151776.03;5090207;28;20204;-66
2022/12/21 09:49:21;;;;;;;7.50;7.10;;;;;;;21.86;40.68;151534.91;5093347;28;20235;-67
2022/12/21 09:51:53;;;;;;;5.72;5.43;;;;;;;22.10;39.78;151593.63;5093153;28;20587;-65
2022/12/21 09:54:28;;;;;;;11.82;6.90;;;;;;;21.40;40.74;151418.94;5092308;28;20188;-64
2022/12/21 09:56:56;;;;;;;15.68;9.65;;;;;;;20.94;42.79;151301.66;5092233;28;20188;-63
2022/12/21 09:59:24;;;;;;;8.70;7.93;;;;;;;20.33;44.29;151148.81;5072767;28;20769;-64
2022/12/21 10:02:00;;;;;;;9.05;8.25;;;;;;;20.45;45.49;151179.38;5072821;28;20626;-63
2022/12/21 10:04:40;;;;;;;7.00;6.65;;;;;;;20.39;43.40;151164.09;5085256;28;20203;-61
2022/12/21 10:07:23;;;;;;;6.40;6.00;;;;;;;20.62;43.41;151220.16;5092929;28;20203;-61
2022/12/21 10:10:04;;;;;;;8.70;6.30;;;;;;;21.01;42.36;151319.47;5092764;28;20556;-61
2022/12/21 10:12:42;;;;;;;5.03;4.72;;;;;;;20.45;42.13;151179.38;5092538;28;20192;-62
2022/12/21 10:15:27;;;;;;;10.43;5.63;;;;;;;19.77;44.37;151006.19;5092572;28;20196;-61
2022/12/21 10:18:08;;;;;;;7.82;4.38;;;;;;;20.23;43.78;151123.31;5092543;28;20653;-61
2022/12/21 10:20:50;;;;;;;18.10;6.00;;;;;;;20.91;42.43;151294.03;5092245;28;20664;-61
2022/12/21 10:23:22;;;;;;;3.60;3.28;;;;;;;21.47;40.79;151434.25;5091847;28;20535;-61
2022/12/21 10:25:53;;;;;;;18.20;5.35;;;;;;;20.98;42.16;151313.13;5090851;28;20184;-61
2022/12/21 10:28:29;;;;;;;16.48;4.88;;;;;;;22.18;40.32;151615.28;5092000;28;20594;-61
2022/12/21 10:31:04;;;;;;;15.40;4.82;;;;;;;22.99;38.05;151818.13;5092987;28;20283;-62
2022/12/21 10:33:32;;;;;;;11.15;3.13;;;;;;;20.59;40.54;151213.75;5092713;28;20190;-61
2022/12/21 10:36:10;;;;;;;3.08;2.63;;;;;;;20.09;42.37;151087.66;5092041;28;20248;-60
2022/12/21 10:38:55;;;;;;;3.45;3.30;;;;;;;19.74;42.69;150998.53;5091857;28;20281;-59
2022/12/21 10:41:26;;;;;;;11.18;4.57;;;;;;;19.23;44.93;150869.94;5091941;28;20245;-60
2022/12/21 10:43:56;;;;;;;4.90;4.00;;;;;;;18.99;44.81;150810.16;5090555;28;20693;-61
2022/12/21 10:46:29;;;;;;;5.43;3.87;;;;;;;19.44;44.96;150924.72;5092190;28;20184;-60
2022/12/21 10:49:01;;;;;;;11.73;4.03;;;;;;;20.84;42.33;151277.44;5091237;28;20305;-62
2022/12/21 10:51:33;;;;;;;9.57;3.88;;;;;;;21.73;40.79;151501.75;5088544;28;20184;-63
2022/12/21 10:54:02;;;;;;;3.28;2.80;;;;;;;21.09;40.89;151339.84;5081951;28;20965;-62
2022/12/21 10:56:32;;;;;;;3.30;3.05;;;;;;;20.64;41.75;151225.22;5085260;28;20203;-62
2022/12/21 10:59:06;;;;;;;2.60;2.40;;;;;;;21.26;40.40;151383.22;5090983;28;20685;-63
2022/12/21 11:01:35;;;;;;;3.85;2.85;;;;;;;19.77;42.76;151007.47;5091777;28;20183;-68
2022/12/21 11:04:13;;;;;;;4.57;3.28;;;;;;;19.98;43.55;151060.94;5091565;28;20192;-66
2022/12/21 11:06:40;;;;;;;10.18;2.90;;;;;;;18.88;44.72;150782.19;5091231;28;20294;-67
2022/12/21 11:09:30;;;;;;;8.33;3.63;;;;;;;18.31;47.43;150638.41;5091725;28;20656;-66
2022/12/21 11:11:57;;;;;;;21.87;11.60;;;;;;;17.53;49.76;150443.88;5091546;28;20196;-64
2022/12/21 11:14:24;;;;;;;4.90;3.10;;;;;;;17.23;51.12;150368.91;5091936;28;20200;-66
2022/12/21 11:16:53;;;;;;;6.10;2.60;;;;;;;17.03;51.68;150316.81;5091561;28;20279;-65
2022/12/21 11:19:21;;;;;;;5.83;3.00;;;;;;;17.27;52.80;150379.06;5091393;28;20252;-66
2022/12/21 11:21:51;;;;;;;15.10;4.93;;;;;;;17.60;51.99;150461.75;5091884;28;20605;-66
2022/12/21 11:24:23;;;;;;;2.57;2.37;;;;;;;18.07;49.24;150578.69;5091846;28;20180;-65
2022/12/21 11:26:54;;;;;;;5.23;3.90;;;;;;;17.00;53.15;150309.19;5092344;28;20246;-67
2022/12/21 11:29:26;;;;;;;4.93;3.33;;;;;;;17.37;52.96;150403.22;5092103;28;20508;-65
2022/12/21 11:31:55;;;;;;;2.20;2.10;;;;;;;16.61;55.20;150211.41;5092010;28;20646;-66
2022/12/21 11:34:32;;;;;;;7.90;2.97;;;;;;;16.24;59.51;150118.66;5091685;28;20180;-66
2022/12/21 11:37:01;;;;;;;2.20;1.90;;;;;;;14.79;64.50;149754.44;5091728;28;20512;-65
2022/12/21 11:39:28;;;;;;;2.80;2.03;;;;;;;13.37;77.07;149398.19;5091175;28;20204;-66
2022/12/21 11:41:55;;;;;;;4.07;2.73;;;;;;;12.47;90.30;149172.75;5091336;28;20202;-67
2022/12/21 11:44:29;;;;;;;2.30;2.10;;;;;;;11.77;97.24;148999.38;5091277;28;20184;-67
2022/12/21 11:47:22;;;;;;;8.13;3.43;;;;;;;11.40;100.00;148906.97;5091899;28;20179;-67
2022/12/21 11:50:25;;;;;;;6.97;2.70;;;;;;;10.91;100.00;148784.28;5090164;28;20283;-67
2022/12/21 11:53:06;;;;;;;7.97;2.60;;;;;;;10.60;100.00;148705.94;5091116;28;20711;-67
2022/12/21 11:55:39;;;;;;;3.17;1.97;;;;;;;10.44;100.00;148666.72;5091010;28;20194;-67
2022/12/21 11:58:16;;;;;;;2.70;2.50;;;;;;;10.57;100.00;148698.31;5091157;28;20287;-65
2022/12/21 12:00:55;;;;;;;5.23;2.23;;;;;;;10.62;100.00;148709.69;5091740;28;20656;-66